sensor_id;sensor_type;location;lat;lon;timestamp;pressure;altitude;pressure_sealevel;temperature;humidity
61710;BME280;47633;51.494;5.386;2023-05-20T00:00:11;102315.50;;;20.33;39.65
61710;BME280;47633;51.494;5.386;2023-05-20T00:02:36;102306.19;;;20.27;39.62
61710;BME280;47633;51.494;5.386;2023-05-20T00:05:02;102308.63;;;20.30;39.49
61710;BME280;47633;51.494;5.386;2023-05-20T00:07:27;102298.25;;;20.27;39.82
61710;BME280;47633;51.494;5.386;2023-05-20T00:09:53;102292.75;;;20.30;39.73
61710;BME280;47633;51.494;5.386;2023-05-20T00:12:18;102293.69;;;20.29;39.49
61710;BME280;47633;51.494;5.386;2023-05-20T00:14:43;102298.13;;;20.28;39.46
61710;BME280;47633;51.494;5.386;2023-05-20T00:17:09;102305.09;;;20.29;39.56
61710;BME280;47633;51.494;5.386;2023-05-20T00:19:34;102306.06;;;20.28;39.55
61710;BME280;47633;51.494;5.386;2023-05-20T00:21:59;102307.84;;;20.28;39.69
61710;BME280;47633;51.494;5.386;2023-05-20T00:24:25;102306.91;;;20.29;39.68
61710;BME280;47633;51.494;5.386;2023-05-20T00:26:51;102307.97;;;20.26;39.61
61710;BME280;47633;51.494;5.386;2023-05-20T00:29:16;102307.97;;;20.26;39.61
61710;BME280;47633;51.494;5.386;2023-05-20T00:31:41;102311.47;;;20.27;39.50
61710;BME280;47633;51.494;5.386;2023-05-20T00:34:07;102303.44;;;20.28;39.90
61710;BME280;47633;51.494;5.386;2023-05-20T00:36:33;102300.13;;;20.25;39.45
61710;BME280;47633;51.494;5.386;2023-05-20T00:38:58;102299.06;;;20.27;39.57
61710;BME280;47633;51.494;5.386;2023-05-20T00:41:24;102300.00;;;20.26;39.61
61710;BME280;47633;51.494;5.386;2023-05-20T00:43:55;102285.63;;;20.18;39.79
61710;BME280;47633;51.494;5.386;2023-05-20T00:46:21;102301.72;;;20.27;39.55
61710;BME280;47633;51.494;5.386;2023-05-20T00:48:47;102297.56;;;20.23;39.78
61710;BME280;47633;51.494;5.386;2023-05-20T00:51:13;102301.09;;;20.24;39.72
61710;BME280;47633;51.494;5.386;2023-05-20T00:53:40;102294.94;;;20.23;39.67
61710;BME280;47633;51.494;5.386;2023-05-20T00:56:06;102292.38;;;20.22;39.77
61710;BME280;47633;51.494;5.386;2023-05-20T00:58:32;102294.19;;;20.21;39.79
61710;BME280;47633;51.494;5.386;2023-05-20T01:00:57;102290.72;;;20.21;39.75
61710;BME280;47633;51.494;5.386;2023-05-20T01:03:22;102290.59;;;20.22;39.71
61710;BME280;47633;51.494;5.386;2023-05-20T01:05:48;102289.72;;;20.22;39.85
61710;BME280;47633;51.494;5.386;2023-05-20T01:08:13;102291.53;;;20.21;39.63
61710;BME280;47633;51.494;5.386;2023-05-20T01:10:41;102287.22;;;20.20;39.92
61710;BME280;47633;51.494;5.386;2023-05-20T01:13:14;102290.72;;;20.21;39.75
61710;BME280;47633;51.494;5.386;2023-05-20T01:15:41;102284.69;;;20.19;39.91
61710;BME280;47633;51.494;5.386;2023-05-20T01:18:09;102291.53;;;20.21;39.60
61710;BME280;47633;51.494;5.386;2023-05-20T01:20:36;102287.22;;;20.20;39.94
61710;BME280;47633;51.494;5.386;2023-05-20T01:23:02;102287.22;;;20.20;39.91
61710;BME280;47633;51.494;5.386;2023-05-20T01:25:27;102277.56;;;20.19;39.89
61710;BME280;47633;51.494;5.386;2023-05-20T01:27:54;102288.06;;;20.21;39.87
61710;BME280;47633;51.494;5.386;2023-05-20T01:30:23;102282.88;;;20.19;39.78
61710;BME280;47633;51.494;5.386;2023-05-20T01:33:06;102290.28;;;20.14;39.89
61710;BME280;47633;51.494;5.386;2023-05-20T01:35:33;102280.31;;;20.18;39.86
61710;BME280;47633;51.494;5.386;2023-05-20T01:37:59;102270.78;;;20.15;39.81
61710;BME280;47633;51.494;5.386;2023-05-20T01:40:26;102275.13;;;20.16;39.79
61710;BME280;47633;51.494;5.386;2023-05-20T01:42:52;102271.75;;;20.14;39.95
61710;BME280;47633;51.494;5.386;2023-05-20T01:45:19;102262.94;;;20.14;39.97
61710;BME280;47633;51.494;5.386;2023-05-20T01:47:45;102269.09;;;20.14;40.05
61710;BME280;47633;51.494;5.386;2023-05-20T01:50:10;102266.47;;;20.14;39.82
61710;BME280;47633;51.494;5.386;2023-05-20T01:52:35;102266.47;;;20.14;39.98
61710;BME280;47633;51.494;5.386;2023-05-20T01:55:01;102268.22;;;20.14;39.75
61710;BME280;47633;51.494;5.386;2023-05-20T01:57:26;102268.13;;;20.15;39.79
61710;BME280;47633;51.494;5.386;2023-05-20T01:59:51;102262.94;;;20.14;40.05
61710;BME280;47633;51.494;5.386;2023-05-20T02:02:17;102255.31;;;20.09;39.88
61710;BME280;47633;51.494;5.386;2023-05-20T02:04:44;102262.94;;;20.14;39.81
61710;BME280;47633;51.494;5.386;2023-05-20T02:07:12;102263.03;;;20.12;40.03
61710;BME280;47633;51.494;5.386;2023-05-20T02:09:37;102261.28;;;20.13;40.08
61710;BME280;47633;51.494;5.386;2023-05-20T02:12:03;102261.38;;;20.11;40.06
61710;BME280;47633;51.494;5.386;2023-05-20T02:14:28;102263.16;;;20.10;39.94
61710;BME280;47633;51.494;5.386;2023-05-20T02:16:55;102265.78;;;20.10;40.03
61710;BME280;47633;51.494;5.386;2023-05-20T02:19:20;102259.66;;;20.10;39.99
61710;BME280;47633;51.494;5.386;2023-05-20T02:21:48;102266.66;;;20.11;40.00
61710;BME280;47633;51.494;5.386;2023-05-20T02:24:14;102256.38;;;20.06;39.93
61710;BME280;47633;51.494;5.386;2023-05-20T02:26:40;102255.75;;;20.03;40.11
61710;BME280;47633;51.494;5.386;2023-05-20T02:29:06;102259.66;;;20.10;40.14
61710;BME280;47633;51.494;5.386;2023-05-20T02:31:31;102250.88;;;20.09;39.97
61710;BME280;47633;51.494;5.386;2023-05-20T02:33:56;102251.09;;;20.06;39.96
61710;BME280;47633;51.494;5.386;2023-05-20T02:36:22;102248.25;;;20.09;40.16
61710;BME280;47633;51.494;5.386;2023-05-20T02:38:47;102246.63;;;20.07;39.74
61710;BME280;47633;51.494;5.386;2023-05-20T02:41:12;102253.63;;;20.08;40.05
61710;BME280;47633;51.494;5.386;2023-05-20T02:43:38;102251.94;;;20.07;39.82
61710;BME280;47633;51.494;5.386;2023-05-20T02:46:04;102262.31;;;20.10;40.01
61710;BME280;47633;51.494;5.386;2023-05-20T02:48:30;102253.63;;;20.08;39.88
61710;BME280;47633;51.494;5.386;2023-05-20T02:50:55;102256.38;;;20.06;40.08
61710;BME280;47633;51.494;5.386;2023-05-20T02:53:21;102252.75;;;20.07;39.91
61710;BME280;47633;51.494;5.386;2023-05-20T02:55:46;102250.22;;;20.06;39.88
61710;BME280;47633;51.494;5.386;2023-05-20T02:58:12;102252.75;;;20.07;40.05
61710;BME280;47633;51.494;5.386;2023-05-20T03:00:38;102247.69;;;20.04;40.23
61710;BME280;47633;51.494;5.386;2023-05-20T03:03:05;102246.84;;;20.04;40.14
61710;BME280;47633;51.494;5.386;2023-05-20T03:05:32;102249.50;;;20.04;40.03
61710;BME280;47633;51.494;5.386;2023-05-20T03:07:57;102245.16;;;20.03;39.90
61710;BME280;47633;51.494;5.386;2023-05-20T03:10:22;102255.63;;;20.04;40.02
61710;BME280;47633;51.494;5.386;2023-05-20T03:12:48;102244.28;;;20.02;40.09
61710;BME280;47633;51.494;5.386;2023-05-20T03:15:13;102247.03;;;20.01;40.01
61710;BME280;47633;51.494;5.386;2023-05-20T03:17:38;102232.34;;;19.97;39.97
61710;BME280;47633;51.494;5.386;2023-05-20T03:20:04;102246.84;;;20.04;40.04
61710;BME280;47633;51.494;5.386;2023-05-20T03:22:31;102252.13;;;20.04;40.14
61710;BME280;47633;51.494;5.386;2023-05-20T03:24:56;102245.28;;;20.01;40.15
61710;BME280;47633;51.494;5.386;2023-05-20T03:27:22;102245.28;;;20.01;40.08
61710;BME280;47633;51.494;5.386;2023-05-20T03:29:50;102247.91;;;20.01;40.23
61710;BME280;47633;51.494;5.386;2023-05-20T03:32:15;102241.75;;;20.01;39.98
61710;BME280;47633;51.494;5.386;2023-05-20T03:34:41;102243.78;;;19.97;40.10
61710;BME280;47633;51.494;5.386;2023-05-20T03:37:06;102242.72;;;20.00;39.83
61710;BME280;47633;51.494;5.386;2023-05-20T03:39:31;102251.50;;;20.00;40.11
61710;BME280;47633;51.494;5.386;2023-05-20T03:41:57;102252.44;;;19.99;39.93
61710;BME280;47633;51.494;5.386;2023-05-20T03:44:22;102241.97;;;19.98;39.95
61710;BME280;47633;51.494;5.386;2023-05-20T03:46:47;102245.38;;;20.00;40.28
61710;BME280;47633;51.494;5.386;2023-05-20T03:49:13;102240.19;;;19.98;40.10
61710;BME280;47633;51.494;5.386;2023-05-20T03:51:38;102240.28;;;19.97;40.24
61710;BME280;47633;51.494;5.386;2023-05-20T03:54:03;102239.31;;;19.98;40.16
61710;BME280;47633;51.494;5.386;2023-05-20T03:56:28;102242.81;;;19.98;40.18
61710;BME280;47633;51.494;5.386;2023-05-20T03:58:54;102240.28;;;19.97;40.33
61710;BME280;47633;51.494;5.386;2023-05-20T04:01:19;102240.38;;;19.95;40.01
61710;BME280;47633;51.494;5.386;2023-05-20T04:03:45;102229.91;;;19.93;40.15
61710;BME280;47633;51.494;5.386;2023-05-20T04:06:12;102235.19;;;19.93;40.14
61710;BME280;47633;51.494;5.386;2023-05-20T04:08:37;102239.41;;;19.96;40.16
61710;BME280;47633;51.494;5.386;2023-05-20T04:11:03;102242.16;;;19.94;40.05
61710;BME280;47633;51.494;5.386;2023-05-20T04:13:28;102244.81;;;19.94;40.17
61710;BME280;47633;51.494;5.386;2023-05-20T04:15:53;102244.91;;;19.93;40.40
61710;BME280;47633;51.494;5.386;2023-05-20T04:18:19;102242.38;;;19.91;40.22
61710;BME280;47633;51.494;5.386;2023-05-20T04:20:45;102245.88;;;19.92;40.34
61710;BME280;47633;51.494;5.386;2023-05-20T04:23:10;102246.72;;;19.92;40.36
61710;BME280;47633;51.494;5.386;2023-05-20T04:25:36;102250.19;;;19.93;40.32
61710;BME280;47633;51.494;5.386;2023-05-20T04:28:01;102248.44;;;19.93;40.58
61710;BME280;47633;51.494;5.386;2023-05-20T04:30:26;102251.19;;;19.92;40.17
61710;BME280;47633;51.494;5.386;2023-05-20T04:32:52;102249.38;;;19.92;40.35
61710;BME280;47633;51.494;5.386;2023-05-20T04:35:18;102249.38;;;19.92;40.49
61710;BME280;47633;51.494;5.386;2023-05-20T04:37:43;102245.00;;;19.91;40.29
61710;BME280;47633;51.494;5.386;2023-05-20T04:40:12;102244.19;;;19.91;40.17
61710;BME280;47633;51.494;5.386;2023-05-20T04:42:37;102242.38;;;19.91;40.33
61710;BME280;47633;51.494;5.386;2023-05-20T04:45:04;102248.53;;;19.92;40.35
61710;BME280;47633;51.494;5.386;2023-05-20T04:47:33;102243.34;;;19.90;40.31
61710;BME280;47633;51.494;5.386;2023-05-20T04:50:04;102242.47;;;19.90;40.44
61710;BME280;47633;51.494;5.386;2023-05-20T04:52:30;102246.09;;;19.89;40.54
61710;BME280;47633;51.494;5.386;2023-05-20T04:54:55;102251.28;;;19.90;40.46
61710;BME280;47633;51.494;5.386;2023-05-20T04:57:22;102245.97;;;19.90;40.57
61710;BME280;47633;51.494;5.386;2023-05-20T04:59:47;102248.63;;;19.90;40.78
61710;BME280;47633;51.494;5.386;2023-05-20T05:02:13;102242.47;;;19.90;40.68
61710;BME280;47633;51.494;5.386;2023-05-20T05:04:38;102241.72;;;19.88;40.48
61710;BME280;47633;51.494;5.386;2023-05-20T05:07:04;102238.03;;;19.90;40.64
61710;BME280;47633;51.494;5.386;2023-05-20T05:09:29;102239.72;;;19.91;40.77
61710;BME280;47633;51.494;5.386;2023-05-20T05:11:55;102237.28;;;19.88;40.55
61710;BME280;47633;51.494;5.386;2023-05-20T05:14:20;102232.13;;;19.87;40.95
61710;BME280;47633;51.494;5.386;2023-05-20T05:16:46;102232.75;;;19.90;40.56
61710;BME280;47633;51.494;5.386;2023-05-20T05:19:11;102234.63;;;19.88;40.66
61710;BME280;47633;51.494;5.386;2023-05-20T05:21:37;102228.41;;;19.89;40.64
61710;BME280;47633;51.494;5.386;2023-05-20T05:24:03;102231.06;;;19.89;40.69
61710;BME280;47633;51.494;5.386;2023-05-20T05:26:28;102230.22;;;19.89;40.83
61710;BME280;47633;51.494;5.386;2023-05-20T05:28:54;102233.69;;;19.89;40.84
61710;BME280;47633;51.494;5.386;2023-05-20T05:31:19;102237.19;;;19.90;40.62
61710;BME280;47633;51.494;5.386;2023-05-20T05:33:44;102242.56;;;19.88;40.83
61710;BME280;47633;51.494;5.386;2023-05-20T05:36:10;102231.25;;;19.86;40.85
61710;BME280;47633;51.494;5.386;2023-05-20T05:38:35;102231.44;;;19.83;40.95
61710;BME280;47633;51.494;5.386;2023-05-20T05:41:00;102228.06;;;19.81;41.03
61710;BME280;47633;51.494;5.386;2023-05-20T05:43:26;102234.19;;;19.82;41.09
61710;BME280;47633;51.494;5.386;2023-05-20T05:45:51;102226.16;;;19.83;40.87
61710;BME280;47633;51.494;5.386;2023-05-20T05:48:16;102225.22;;;19.84;40.88
61710;BME280;47633;51.494;5.386;2023-05-20T05:50:45;102218.22;;;19.83;41.23
61710;BME280;47633;51.494;5.386;2023-05-20T05:53:10;102225.03;;;19.87;40.96
61710;BME280;47633;51.494;5.386;2023-05-20T05:55:36;102228.41;;;19.89;40.94
61710;BME280;47633;51.494;5.386;2023-05-20T05:58:01;102230.84;;;19.92;41.06
61710;BME280;47633;51.494;5.386;2023-05-20T06:00:27;102227.34;;;19.92;41.01
61710;BME280;47633;51.494;5.386;2023-05-20T06:02:52;102232.56;;;19.93;41.10
61710;BME280;47633;51.494;5.386;2023-05-20T06:05:17;102226.28;;;19.94;40.99
61710;BME280;47633;51.494;5.386;2023-05-20T06:07:43;102230.84;;;19.92;41.03
61710;BME280;47633;51.494;5.386;2023-05-20T06:10:08;102233.38;;;19.94;41.06
61710;BME280;47633;51.494;5.386;2023-05-20T06:12:34;102233.38;;;19.94;41.07
61710;BME280;47633;51.494;5.386;2023-05-20T06:14:59;102227.34;;;19.92;41.16
61710;BME280;47633;51.494;5.386;2023-05-20T06:17:25;102221.19;;;19.91;41.15
61710;BME280;47633;51.494;5.386;2023-05-20T06:19:50;102210.72;;;19.90;40.95
61710;BME280;47633;51.494;5.386;2023-05-20T06:22:15;102224.63;;;19.93;40.97
61710;BME280;47633;51.494;5.386;2023-05-20T06:24:40;102217.41;;;19.96;41.17
61710;BME280;47633;51.494;5.386;2023-05-20T06:27:06;102212.22;;;19.94;41.14
61710;BME280;47633;51.494;5.386;2023-05-20T06:29:31;102208.94;;;19.90;41.14
61710;BME280;47633;51.494;5.386;2023-05-20T06:31:56;102208.31;;;19.87;41.30
61710;BME280;47633;51.494;5.386;2023-05-20T06:34:21;102206.28;;;19.90;41.34
61710;BME280;47633;51.494;5.386;2023-05-20T06:36:47;102204.59;;;19.89;41.44
61710;BME280;47633;51.494;5.386;2023-05-20T06:39:12;102203.13;;;19.85;41.98
61710;BME280;47633;51.494;5.386;2023-05-20T06:41:38;102200.69;;;19.82;42.04
61710;BME280;47633;51.494;5.386;2023-05-20T06:44:04;102203.44;;;19.81;42.26
61710;BME280;47633;51.494;5.386;2023-05-20T06:46:30;102199.28;;;19.77;42.58
61710;BME280;47633;51.494;5.386;2023-05-20T06:48:55;102194.16;;;19.73;42.76
61710;BME280;47633;51.494;5.386;2023-05-20T06:51:21;102203.63;;;19.78;42.81
61710;BME280;47633;51.494;5.386;2023-05-20T06:53:46;102197.38;;;19.79;43.24
61710;BME280;47633;51.494;5.386;2023-05-20T06:56:11;102190.50;;;19.76;43.48
61710;BME280;47633;51.494;5.386;2023-05-20T06:58:37;102186.97;;;19.75;43.42
61710;BME280;47633;51.494;5.386;2023-05-20T07:01:02;102189.34;;;19.80;43.66
61710;BME280;47633;51.494;5.386;2023-05-20T07:03:28;102190.31;;;19.79;43.43
61710;BME280;47633;51.494;5.386;2023-05-20T07:05:53;102182.16;;;19.82;43.44
61710;BME280;47633;51.494;5.386;2023-05-20T07:08:18;102179.63;;;19.81;43.54
61710;BME280;47633;51.494;5.386;2023-05-20T07:10:44;102187.34;;;19.84;43.45
61710;BME280;47633;51.494;5.386;2023-05-20T07:13:10;102184.81;;;19.82;43.77
61710;BME280;47633;51.494;5.386;2023-05-20T07:15:36;102185.66;;;19.83;43.75
61710;BME280;47633;51.494;5.386;2023-05-20T07:18:01;102176.66;;;19.85;43.74
61710;BME280;47633;51.494;5.386;2023-05-20T07:20:26;102189.91;;;19.85;44.37
61710;BME280;47633;51.494;5.386;2023-05-20T07:22:51;102174.03;;;19.85;44.29
61710;BME280;47633;51.494;5.386;2023-05-20T07:25:17;102178.53;;;19.83;44.55
61710;BME280;47633;51.494;5.386;2023-05-20T07:27:42;102174.97;;;19.84;44.54
61710;BME280;47633;51.494;5.386;2023-05-20T07:30:08;102170.81;;;19.80;44.58
61710;BME280;47633;51.494;5.386;2023-05-20T07:32:33;102164.69;;;19.80;44.80
61710;BME280;47633;51.494;5.386;2023-05-20T07:34:59;102174.34;;;19.81;44.94
61710;BME280;47633;51.494;5.386;2023-05-20T07:37:24;102172.41;;;19.83;44.98
61710;BME280;47633;51.494;5.386;2023-05-20T07:39:50;102154.84;;;19.82;44.91
61710;BME280;47633;51.494;5.386;2023-05-20T07:42:15;102161.41;;;19.89;44.57
61710;BME280;47633;51.494;5.386;2023-05-20T07:44:40;102166.72;;;19.89;44.64
61710;BME280;47633;51.494;5.386;2023-05-20T07:47:06;102169.56;;;19.86;44.56
61710;BME280;47633;51.494;5.386;2023-05-20T07:49:31;102168.72;;;19.85;44.98
61710;BME280;47633;51.494;5.386;2023-05-20T07:51:56;102161.84;;;19.83;44.77
61710;BME280;47633;51.494;5.386;2023-05-20T07:54:22;102164.16;;;19.87;44.55
61710;BME280;47633;51.494;5.386;2023-05-20T07:56:47;102162.25;;;19.89;44.41
61710;BME280;47633;51.494;5.386;2023-05-20T07:59:12;102154.13;;;20.05;44.19
61710;BME280;47633;51.494;5.386;2023-05-20T08:01:40;102159.50;;;20.17;43.74
61710;BME280;47633;51.494;5.386;2023-05-20T08:04:05;102151.16;;;20.23;43.62
61710;BME280;47633;51.494;5.386;2023-05-20T08:06:31;102157.16;;;20.25;43.63
61710;BME280;47633;51.494;5.386;2023-05-20T08:08:56;102151.25;;;20.21;43.71
61710;BME280;47633;51.494;5.386;2023-05-20T08:11:22;102149.34;;;20.23;43.65
61710;BME280;47633;51.494;5.386;2023-05-20T08:13:47;102142.88;;;20.27;43.57
61710;BME280;47633;51.494;5.386;2023-05-20T08:16:13;102150.63;;;20.30;43.43
61710;BME280;47633;51.494;5.386;2023-05-20T08:18:38;102151.47;;;20.31;43.55
61710;BME280;47633;51.494;5.386;2023-05-20T08:21:04;102137.06;;;20.35;43.34
61710;BME280;47633;51.494;5.386;2023-05-20T08:23:32;102150.09;;;20.38;43.26
61710;BME280;47633;51.494;5.386;2023-05-20T08:25:57;102140.66;;;20.34;43.19
61710;BME280;47633;51.494;5.386;2023-05-20T08:28:26;102138.00;;;20.34;43.21
61710;BME280;47633;51.494;5.386;2023-05-20T08:30:51;102139.09;;;20.32;43.29
61710;BME280;47633;51.494;5.386;2023-05-20T08:33:17;102134.31;;;20.37;42.99
61710;BME280;47633;51.494;5.386;2023-05-20T08:35:43;102135.03;;;20.39;43.18
61710;BME280;47633;51.494;5.386;2023-05-20T08:38:09;102122.63;;;20.39;43.34
61710;BME280;47633;51.494;5.386;2023-05-20T08:40:34;102128.59;;;20.43;43.09
61710;BME280;47633;51.494;5.386;2023-05-20T08:43:01;102133.78;;;20.44;42.86
61710;BME280;47633;51.494;5.386;2023-05-20T08:45:31;102119.66;;;20.44;42.82
61710;BME280;47633;51.494;5.386;2023-05-20T08:47:57;102116.91;;;20.45;42.82
61710;BME280;47633;51.494;5.386;2023-05-20T08:50:22;102122.09;;;20.47;42.91
61710;BME280;47633;51.494;5.386;2023-05-20T08:52:48;102122.31;;;20.44;43.01
61710;BME280;47633;51.494;5.386;2023-05-20T08:55:23;102118.50;;;20.48;42.93
61710;BME280;47633;51.494;5.386;2023-05-20T08:57:53;102115.00;;;20.47;42.81
61710;BME280;47633;51.494;5.386;2023-05-20T09:00:20;102122.84;;;20.49;42.60
61710;BME280;47633;51.494;5.386;2023-05-20T09:02:47;102116.69;;;20.48;42.92
61710;BME280;47633;51.494;5.386;2023-05-20T09:05:13;102122.63;;;20.52;42.78
61710;BME280;47633;51.494;5.386;2023-05-20T09:07:39;102117.22;;;20.54;42.54
61710;BME280;47633;51.494;5.386;2023-05-20T09:10:07;102110.97;;;20.55;42.69
61710;BME280;47633;51.494;5.386;2023-05-20T09:12:32;102111.94;;;20.54;42.71
61710;BME280;47633;51.494;5.386;2023-05-20T09:14:57;102111.94;;;20.54;42.91
61710;BME280;47633;51.494;5.386;2023-05-20T09:17:23;102099.75;;;20.51;42.86
61710;BME280;47633;51.494;5.386;2023-05-20T09:19:49;102105.88;;;20.52;42.71
61710;BME280;47633;51.494;5.386;2023-05-20T09:22:24;102107.78;;;20.50;42.95
61710;BME280;47633;51.494;5.386;2023-05-20T09:24:50;102100.81;;;20.48;42.55
61710;BME280;47633;51.494;5.386;2023-05-20T09:27:20;102102.41;;;20.51;42.78
61710;BME280;47633;51.494;5.386;2023-05-20T09:29:51;102104.00;;;20.54;42.98
61710;BME280;47633;51.494;5.386;2023-05-20T09:32:19;102085.13;;;20.45;42.64
61710;BME280;47633;51.494;5.386;2023-05-20T09:34:47;102094.22;;;20.54;42.56
61710;BME280;47633;51.494;5.386;2023-05-20T09:37:13;102088.81;;;20.56;42.77
61710;BME280;47633;51.494;5.386;2023-05-20T09:40:03;102092.31;;;20.56;42.64
61710;BME280;47633;51.494;5.386;2023-05-20T09:42:39;102093.25;;;20.55;42.64
61710;BME280;47633;51.494;5.386;2023-05-20T09:45:07;102098.34;;;20.58;42.81
61710;BME280;47633;51.494;5.386;2023-05-20T09:47:37;102098.56;;;20.55;42.75
61710;BME280;47633;51.494;5.386;2023-05-20T09:50:06;102100.88;;;20.60;42.63
61710;BME280;47633;51.494;5.386;2023-05-20T09:52:34;102098.69;;;20.54;42.63
61710;BME280;47633;51.494;5.386;2023-05-20T09:55:02;102096.78;;;20.56;42.64
61710;BME280;47633;51.494;5.386;2023-05-20T09:57:32;102093.03;;;20.58;42.88
61710;BME280;47633;51.494;5.386;2023-05-20T09:59:57;102098.22;;;20.60;42.68
61710;BME280;47633;51.494;5.386;2023-05-20T10:02:23;102084.38;;;20.56;42.92
61710;BME280;47633;51.494;5.386;2023-05-20T10:04:50;102084.97;;;20.60;42.52
61710;BME280;47633;51.494;5.386;2023-05-20T10:18:44;102073.56;;;20.59;42.59
61710;BME280;47633;51.494;5.386;2023-05-20T10:21:16;102070.06;;;20.59;42.80
61710;BME280;47633;51.494;5.386;2023-05-20T10:23:41;102064.56;;;20.62;42.74
61710;BME280;47633;51.494;5.386;2023-05-20T10:26:07;102061.47;;;20.55;42.94
61710;BME280;47633;51.494;5.386;2023-05-20T10:28:36;102058.81;;;20.55;42.76
61710;BME280;47633;51.494;5.386;2023-05-20T10:31:13;102052.47;;;20.58;42.66
61710;BME280;47633;51.494;5.386;2023-05-20T10:33:41;102050.03;;;20.68;42.42
61710;BME280;47633;51.494;5.386;2023-05-20T10:36:07;102049.91;;;20.69;42.46
61710;BME280;47633;51.494;5.386;2023-05-20T10:38:32;102040.56;;;20.76;42.64
61710;BME280;47633;51.494;5.386;2023-05-20T10:41:07;102049.56;;;20.74;42.51
61710;BME280;47633;51.494;5.386;2023-05-20T10:43:33;102039.47;;;20.79;42.41
61710;BME280;47633;51.494;5.386;2023-05-20T10:45:58;102029.53;;;20.82;42.30
61710;BME280;47633;51.494;5.386;2023-05-20T10:48:26;102042.88;;;20.81;42.40
61710;BME280;47633;51.494;5.386;2023-05-20T10:50:56;102042.88;;;20.81;42.51
61710;BME280;47633;51.494;5.386;2023-05-20T10:53:23;102051.16;;;20.76;42.36
61710;BME280;47633;51.494;5.386;2023-05-20T10:55:51;102043.09;;;20.78;42.58
61710;BME280;47633;51.494;5.386;2023-05-20T10:58:16;102032.50;;;20.78;42.15
61710;BME280;47633;51.494;5.386;2023-05-20T11:00:43;102039.72;;;20.76;42.46
61710;BME280;47633;51.494;5.386;2023-05-20T11:03:09;102030.19;;;20.73;42.69
61710;BME280;47633;51.494;5.386;2023-05-20T11:05:38;102025.84;;;20.72;42.79
61710;BME280;47633;51.494;5.386;2023-05-20T11:08:05;102024.28;;;20.70;42.95
61710;BME280;47633;51.494;5.386;2023-05-20T11:10:33;102023.41;;;20.69;42.89
61710;BME280;47633;51.494;5.386;2023-05-20T11:13:00;102024.19;;;20.71;42.94
61710;BME280;47633;51.494;5.386;2023-05-20T11:15:25;102016.56;;;20.67;42.83
61710;BME280;47633;51.494;5.386;2023-05-20T11:17:54;102019.09;;;20.68;42.84
61710;BME280;47633;51.494;5.386;2023-05-20T11:20:21;102022.38;;;20.72;42.87
61710;BME280;47633;51.494;5.386;2023-05-20T11:22:48;102008.28;;;20.71;42.79
61710;BME280;47633;51.494;5.386;2023-05-20T11:25:15;102027.66;;;20.72;42.79
61710;BME280;47633;51.494;5.386;2023-05-20T11:27:41;102010.78;;;20.73;42.78
61710;BME280;47633;51.494;5.386;2023-05-20T11:30:07;102017.06;;;20.72;42.83
61710;BME280;47633;51.494;5.386;2023-05-20T11:32:33;102013.44;;;20.73;42.78
61710;BME280;47633;51.494;5.386;2023-05-20T11:34:58;102005.50;;;20.73;42.80
61710;BME280;47633;51.494;5.386;2023-05-20T11:37:23;102005.63;;;20.71;42.67
61710;BME280;47633;51.494;5.386;2023-05-20T11:40:04;101997.81;;;20.70;42.55
61710;BME280;47633;51.494;5.386;2023-05-20T11:42:35;102000.09;;;20.74;42.72
61710;BME280;47633;51.494;5.386;2023-05-20T11:45:00;102005.38;;;20.74;42.75
61710;BME280;47633;51.494;5.386;2023-05-20T11:47:26;102003.72;;;20.73;42.79
61710;BME280;47633;51.494;5.386;2023-05-20T11:49:52;102001.91;;;20.74;42.78
61710;BME280;47633;51.494;5.386;2023-05-20T11:52:17;101993.94;;;20.74;42.50
61710;BME280;47633;51.494;5.386;2023-05-20T11:54:43;101995.66;;;20.75;42.73
61710;BME280;47633;51.494;5.386;2023-05-20T11:57:10;101989.38;;;20.76;42.72
61710;BME280;47633;51.494;5.386;2023-05-20T11:59:35;101981.53;;;20.74;42.80
61710;BME280;47633;51.494;5.386;2023-05-20T12:02:01;101983.34;;;20.74;42.87
61710;BME280;47633;51.494;5.386;2023-05-20T12:04:26;101984.06;;;20.76;42.76
61710;BME280;47633;51.494;5.386;2023-05-20T12:06:51;101978.78;;;20.76;42.73
61710;BME280;47633;51.494;5.386;2023-05-20T12:09:17;101992.78;;;20.78;42.90
61710;BME280;47633;51.494;5.386;2023-05-20T12:11:42;101984.47;;;20.82;42.68
61710;BME280;47633;51.494;5.386;2023-05-20T12:14:09;101977.25;;;20.84;42.52
61710;BME280;47633;51.494;5.386;2023-05-20T12:16:35;101971.72;;;20.88;42.60
61710;BME280;47633;51.494;5.386;2023-05-20T12:19:02;101970.78;;;20.89;42.62
61710;BME280;47633;51.494;5.386;2023-05-20T12:21:28;101958.97;;;20.93;42.41
61710;BME280;47633;51.494;5.386;2023-05-20T12:23:53;101964.28;;;20.93;42.07
61710;BME280;47633;51.494;5.386;2023-05-20T12:26:26;101961.72;;;20.91;42.31
61710;BME280;47633;51.494;5.386;2023-05-20T12:28:53;101958.38;;;20.89;42.51
61710;BME280;47633;51.494;5.386;2023-05-20T12:31:18;101953.19;;;20.88;42.37
61710;BME280;47633;51.494;5.386;2023-05-20T12:33:44;101964.34;;;20.80;42.56
61710;BME280;47633;51.494;5.386;2023-05-20T12:36:12;101964.34;;;20.80;42.57
61710;BME280;47633;51.494;5.386;2023-05-20T12:38:38;101961.59;;;20.81;42.76
61710;BME280;47633;51.494;5.386;2023-05-20T12:41:03;101966.28;;;20.78;42.76
61710;BME280;47633;51.494;5.386;2023-05-20T12:43:29;101971.91;;;20.73;42.92
61710;BME280;47633;51.494;5.386;2023-05-20T12:45:54;101960.72;;;20.70;42.75
61710;BME280;47633;51.494;5.386;2023-05-20T12:48:20;101961.56;;;20.70;43.07
61710;BME280;47633;51.494;5.386;2023-05-20T12:50:45;101960.84;;;20.68;42.69
61710;BME280;47633;51.494;5.386;2023-05-20T12:53:10;101946.84;;;20.66;43.22
61710;BME280;47633;51.494;5.386;2023-05-20T12:55:35;101955.66;;;20.67;42.82